createdAt,value
2024-03-25T00:03:33.697Z,42
2024-03-25T00:08:35.821Z,42
2024-03-25T00:13:38.007Z,42
2024-03-25T00:18:40.273Z,42
2024-03-25T00:23:42.335Z,42
2024-03-25T00:28:44.477Z,42
2024-03-25T00:33:46.628Z,43
2024-03-25T00:38:48.761Z,43
2024-03-25T00:43:51.113Z,43
2024-03-25T00:48:53.219Z,43
2024-03-25T00:53:55.342Z,43
2024-03-25T00:58:57.684Z,43
2024-03-25T01:03:59.767Z,43
2024-03-25T01:09:01.905Z,43
2024-03-25T01:14:04.050Z,43
2024-03-25T01:19:06.236Z,43
2024-03-25T01:24:08.341Z,43
2024-03-25T01:29:10.672Z,43
2024-03-25T01:34:12.813Z,43
2024-03-25T01:39:14.944Z,43
2024-03-25T01:44:17.212Z,43
2024-03-25T01:49:19.362Z,43
2024-03-25T01:54:21.487Z,43
2024-03-25T01:59:23.883Z,44
2024-03-25T02:04:25.974Z,44
2024-03-25T02:09:29.247Z,44
2024-03-25T02:14:30.249Z,44
2024-03-25T02:19:32.429Z,44
2024-03-25T02:24:34.679Z,44
2024-03-25T02:29:36.808Z,44
2024-03-25T02:34:39.234Z,44
2024-03-25T02:39:41.407Z,44
2024-03-25T02:44:43.549Z,44
2024-03-25T02:49:45.861Z,44
2024-03-25T02:54:47.930Z,44
2024-03-25T02:59:50.058Z,44
2024-03-25T03:04:52.211Z,44
2024-03-25T03:09:54.347Z,44
2024-03-25T03:14:56.629Z,44
2024-03-25T03:19:58.734Z,45
2024-03-25T03:25:00.862Z,45
2024-03-25T03:30:03.039Z,45
2024-03-25T03:35:05.156Z,45
2024-03-25T03:40:07.287Z,45
2024-03-25T03:45:09.541Z,45
2024-03-25T03:50:11.687Z,45
2024-03-25T03:55:15.628Z,45
2024-03-25T04:00:16.079Z,45
2024-03-25T04:05:18.175Z,45
2024-03-25T04:10:20.311Z,45
2024-03-25T04:15:22.433Z,45
2024-03-25T04:20:24.596Z,45
2024-03-25T04:25:26.727Z,45
2024-03-25T04:30:28.969Z,45
2024-03-25T04:35:31.106Z,45
2024-03-25T04:40:33.314Z,45
2024-03-25T04:45:35.581Z,45
2024-03-25T04:50:37.729Z,45
2024-03-25T04:55:39.859Z,45
2024-03-25T05:00:42.212Z,45
2024-03-25T05:05:44.366Z,45
2024-03-25T05:10:46.488Z,45
2024-03-25T05:15:48.802Z,45
2024-03-25T05:20:50.892Z,45
2024-03-25T05:25:53.022Z,45
2024-03-25T05:30:55.287Z,45
2024-03-25T05:35:57.426Z,45
2024-03-25T05:40:59.546Z,45
2024-03-25T05:46:01.698Z,45
2024-03-25T05:51:03.858Z,46
2024-03-25T05:56:06.247Z,46
2024-03-25T06:01:08.309Z,46
2024-03-25T06:06:10.739Z,46
2024-03-25T06:11:12.794Z,46
2024-03-25T06:16:14.939Z,46
2024-03-25T06:21:17.094Z,46
2024-03-25T06:26:19.416Z,46
2024-03-25T06:31:21.550Z,45
2024-03-25T06:36:23.969Z,45
2024-03-25T06:41:26.224Z,45
2024-03-25T06:46:28.355Z,45
2024-03-25T06:51:30.830Z,44
2024-03-25T06:56:32.845Z,44
2024-03-25T07:01:34.975Z,44
2024-03-25T07:06:37.187Z,44
2024-03-25T07:11:39.312Z,44
2024-03-25T07:16:41.675Z,44
2024-03-25T07:21:43.811Z,44
2024-03-25T07:26:45.962Z,44
2024-03-25T07:31:48.192Z,44
2024-03-25T07:36:50.353Z,44
2024-03-25T07:41:52.477Z,44
2024-03-25T07:46:54.630Z,44
2024-03-25T07:51:56.792Z,44
2024-03-25T07:56:58.968Z,45
2024-03-25T08:02:01.261Z,45
2024-03-25T08:07:03.400Z,45
2024-03-25T08:12:05.515Z,45
2024-03-25T08:17:07.657Z,45
2024-03-25T08:22:09.796Z,45
2024-03-25T08:27:11.919Z,45
2024-03-25T08:32:14.290Z,45
2024-03-25T08:37:16.343Z,46
2024-03-25T08:42:18.523Z,46
2024-03-25T08:47:20.716Z,46
2024-03-25T08:52:22.880Z,46
2024-03-25T08:57:24.984Z,46
2024-03-25T09:02:27.391Z,46
2024-03-25T09:07:29.530Z,46
2024-03-25T09:12:31.593Z,46
2024-03-25T09:17:33.761Z,46
2024-03-25T09:22:35.983Z,47
2024-03-25T09:27:38.218Z,47
2024-03-25T09:32:40.447Z,47
2024-03-25T09:37:42.714Z,48
2024-03-25T09:42:44.789Z,48
2024-03-25T09:47:46.997Z,48
2024-03-25T09:52:49.400Z,48
2024-03-25T09:57:51.371Z,48
2024-03-25T10:02:53.531Z,49
2024-03-25T10:07:55.815Z,49
2024-03-25T10:12:58.018Z,49
2024-03-25T10:18:00.147Z,49
2024-03-25T10:23:02.461Z,49
2024-03-25T10:28:04.536Z,49
2024-03-25T10:33:06.812Z,50
2024-03-25T10:38:09.165Z,50
2024-03-25T10:43:11.154Z,50
2024-03-25T10:48:13.426Z,50
2024-03-25T10:53:15.659Z,50
2024-03-25T10:58:17.715Z,50
2024-03-25T11:03:19.927Z,50
2024-03-25T11:08:22.253Z,50
2024-03-25T11:13:24.277Z,50
2024-03-25T11:18:26.662Z,50
2024-03-25T11:23:28.977Z,51
2024-03-25T11:28:31.075Z,51
2024-03-25T11:33:33.479Z,51
2024-03-25T11:38:35.855Z,51
2024-03-25T11:43:37.902Z,51
2024-03-25T11:48:40.057Z,51
2024-03-25T11:53:42.488Z,51
2024-03-25T11:58:44.582Z,51
2024-03-25T12:03:46.870Z,51
2024-03-25T12:08:48.978Z,51
2024-03-25T12:13:51.095Z,51
2024-03-25T12:18:53.224Z,51
2024-03-25T12:23:55.527Z,52
2024-03-25T12:28:57.598Z,52
2024-03-25T12:34:00.919Z,52
2024-03-25T12:39:02.073Z,51
2024-03-25T12:44:04.206Z,51
2024-03-25T12:49:06.346Z,51
2024-03-25T12:54:08.711Z,50
2024-03-25T12:59:10.740Z,49
2024-03-25T13:04:13.099Z,49
2024-03-25T13:09:15.459Z,48
2024-03-25T13:14:17.546Z,47
2024-03-25T13:19:19.662Z,47
2024-03-25T13:24:21.977Z,47
2024-03-25T13:29:24.048Z,46
2024-03-25T13:34:26.389Z,46
2024-03-25T13:39:28.644Z,46
2024-03-25T13:44:30.696Z,45
2024-03-25T13:49:32.847Z,45
2024-03-25T13:54:35.149Z,45
2024-03-25T13:59:37.216Z,45
2024-03-25T14:04:39.505Z,45
2024-03-25T14:09:41.845Z,45
2024-03-25T14:14:43.919Z,45
2024-03-25T14:19:46.201Z,45
2024-03-25T14:24:48.320Z,45
2024-03-25T14:29:50.445Z,45
2024-03-25T14:34:52.610Z,45
2024-03-25T14:39:54.929Z,45
2024-03-25T14:44:56.998Z,45
2024-03-25T14:49:59.377Z,45
2024-03-25T14:55:01.555Z,45
2024-03-25T15:00:03.642Z,45
2024-03-25T15:05:05.841Z,45
2024-03-25T15:10:07.945Z,45
2024-03-25T15:15:10.310Z,45
2024-03-25T15:20:12.408Z,45
2024-03-25T15:25:14.575Z,44
2024-03-25T15:30:16.869Z,44
2024-03-25T15:35:18.960Z,44
2024-03-25T15:40:21.151Z,44
2024-03-25T15:45:23.448Z,44
2024-03-25T15:50:25.604Z,44
2024-03-25T15:55:27.801Z,44
2024-03-25T16:00:30.130Z,44
2024-03-25T16:05:32.256Z,44
2024-03-25T16:10:34.391Z,44
2024-03-25T16:15:36.525Z,44
2024-03-25T16:20:38.715Z,45
2024-03-25T16:25:41.007Z,45
2024-03-25T16:30:43.068Z,45
2024-03-25T16:35:45.577Z,45
2024-03-25T16:40:47.739Z,45
2024-03-25T16:45:49.826Z,45
2024-03-25T16:50:52.147Z,45
2024-03-25T16:55:54.301Z,45
2024-03-25T17:00:56.419Z,45
2024-03-25T17:06:05.460Z,45
2024-03-25T17:11:00.875Z,45
2024-03-25T17:16:03.011Z,45
2024-03-25T17:21:05.402Z,45
2024-03-25T17:26:07.500Z,44
2024-03-25T17:31:09.621Z,43
2024-03-25T17:36:11.811Z,42
2024-03-25T17:41:13.993Z,42
2024-03-25T17:46:16.300Z,42
2024-03-25T17:51:18.464Z,42
2024-03-25T17:56:20.627Z,42
2024-03-25T18:01:22.752Z,42
2024-03-25T18:06:24.900Z,42
2024-03-25T18:11:27.108Z,42
2024-03-25T18:16:29.368Z,43
2024-03-25T18:21:31.455Z,43
2024-03-25T18:26:33.612Z,43
2024-03-25T18:31:35.875Z,44
2024-03-25T18:36:37.975Z,45
2024-03-25T18:41:40.135Z,45
2024-03-25T18:46:42.261Z,45
2024-03-25T18:51:44.403Z,45
2024-03-25T18:56:46.585Z,45
2024-03-25T19:01:48.862Z,45
2024-03-25T19:06:50.939Z,45
2024-03-25T19:11:53.105Z,45
2024-03-25T19:16:55.389Z,45
2024-03-25T19:21:57.564Z,45
2024-03-25T19:26:59.723Z,45
2024-03-25T19:32:02.014Z,44
2024-03-25T19:37:04.135Z,44
2024-03-25T19:42:06.294Z,44
2024-03-25T19:47:08.415Z,43
2024-03-25T19:52:10.553Z,43
2024-03-25T19:57:12.819Z,43
2024-03-25T20:02:14.974Z,43
2024-03-25T20:07:17.133Z,43
2024-03-25T20:12:19.276Z,43
2024-03-25T20:17:21.404Z,43
2024-03-25T20:22:23.541Z,44
2024-03-25T20:27:25.816Z,44
2024-03-25T20:32:28.179Z,44
2024-03-25T20:37:30.233Z,44
2024-03-25T20:42:32.639Z,45
2024-03-25T20:47:34.724Z,45
2024-03-25T20:52:36.841Z,45
2024-03-25T20:57:39.223Z,45
2024-03-25T21:02:41.267Z,45
2024-03-25T21:07:43.656Z,45
2024-03-25T21:12:45.937Z,45
2024-03-25T21:17:48.002Z,45
2024-03-25T21:22:50.270Z,45
2024-03-25T21:27:52.408Z,45
2024-03-25T21:32:55.466Z,45
2024-03-25T21:37:57.620Z,45
2024-03-25T21:42:59.781Z,45
2024-03-25T21:48:01.997Z,45
2024-03-25T21:53:04.161Z,45
2024-03-25T21:58:06.490Z,44
2024-03-25T22:03:08.737Z,44
2024-03-25T22:08:10.879Z,44
2024-03-25T22:13:13.186Z,44
2024-03-25T22:18:15.253Z,44
2024-03-25T22:23:17.394Z,44
2024-03-25T22:28:19.713Z,44
2024-03-25T22:33:21.816Z,45
2024-03-25T22:38:23.964Z,45
2024-03-25T22:43:26.355Z,45
2024-03-25T22:48:28.551Z,45
2024-03-25T22:53:30.707Z,45
2024-03-25T22:58:32.824Z,45
2024-03-25T23:03:35.119Z,45
2024-03-25T23:08:37.283Z,45
2024-03-25T23:13:39.399Z,45
2024-03-25T23:18:41.521Z,45
2024-03-25T23:23:43.923Z,45
2024-03-25T23:28:46.019Z,45
2024-03-25T23:33:48.190Z,45
2024-03-25T23:38:50.297Z,45
2024-03-25T23:43:52.444Z,45
2024-03-25T23:48:54.573Z,45
2024-03-25T23:53:56.852Z,45
2024-03-25T23:58:58.980Z,45
